First Ferry Vi — VRS4293 — position and weather

sailwx.info

Track history (hours):
 
Tides and Currents Weather Stations Pressure Air Temp Water Temp Dewpoint Dewpoint Depression Visibility Wind Speed Wind Dir Waves Ship Positions

First Ferry Vi

Last reported at 2015-Mar-06 15:33 UTC. Time now 2015-Mar-06 20:05 UTC.
Position N 22°17' E 114°10'.

Length 36 m; draft 1.8 m.

Type: Ship. MMSI: 477995028.

Date/timePositionNaut miles runAvg speedWind from/ knotsBaromVisibWave heightAir tempDewpointWater temp
2015-Mar-06 15:33N 22°17' E 114°10'7 5.9
2015-Mar-06 14:23N 22°16' E 114°02'911.1
2015-Mar-06 13:33N 22°18' E 114°12'2 2.3
2015-Mar-06 12:33N 22°17' E 114°10'4 4.3
2015-Mar-06 11:33N 22°16' E 114°05'3 2.6
2015-Mar-06 10:25N 22°16' E 114°02'910.2
2015-Mar-06 09:33N 22°18' E 114°11'2 2.4
2015-Mar-06 08:33N 22°18' E 114°08'2 2.2
2015-Mar-06 07:25N 22°17' E 114°06'4 4.3
2015-Mar-06 06:33N 22°20' E 114°09'0 0.1
2015-Mar-06 05:33N 22°20' E 114°09'0 0.0
2015-Mar-06 04:34N 22°20' E 114°09'0 0.0
2015-Mar-06 03:33N 22°20' E 114°09'0 0.0
2015-Mar-06 02:32N 22°20' E 114°09'0 0.0
2015-Mar-06 01:33N 22°20' E 114°09'1 1.1
2015-Mar-06 00:33N 22°19' E 114°09'5 4.3
2015-Mar-05 23:18N 22°16' E 114°04'5 0.7
2015-Mar-05 15:33N 22°17' E 114°10'7 5.6
2015-Mar-05 14:22N 22°16' E 114°03'7 8.2
2015-Mar-05 13:33N 22°17' E 114°10'0 0.0
2015-Mar-05 12:33N 22°17' E 114°10'4 3.8
2015-Mar-05 11:31N 22°17' E 114°05'0 0.3
2015-Mar-05 10:17N 22°17' E 114°05'6 8.5
2015-Mar-05 09:34N 22°18' E 114°12'1 0.8
2015-Mar-05 08:33N 22°19' E 114°12'0 0.0
2015-Mar-05 07:33N 22°19' E 114°12'0 0.0
2015-Mar-05 06:34N 22°19' E 114°12'2 1.8
2015-Mar-05 05:33N 22°17' E 114°11'1 0.5
2015-Mar-05 03:33N 22°17' E 114°10'0 0.2
2015-Mar-05 01:33N 22°17' E 114°10'2 2.2
2015-Mar-05 00:33N 22°19' E 114°09'7 6.0
2015-Mar-04 23:21N 22°15' E 114°03'7 0.8
2015-Mar-04 15:34N 22°17' E 114°10'8 6.5
2015-Mar-04 14:24N 22°16' E 114°02'911.2
2015-Mar-04 13:34N 22°18' E 114°12'2 1.9
2015-Mar-04 12:34N 22°17' E 114°10'5 4.6
2015-Mar-04 11:33N 22°16' E 114°05'2 2.1
2015-Mar-04 10:23N 22°16' E 114°02'7 8.6
2015-Mar-04 09:33N 22°20' E 114°09'0 0.1
2015-Mar-04 08:33N 22°20' E 114°09'0 0.0
2015-Mar-04 07:33N 22°20' E 114°09'0 0.0
2015-Mar-04 06:33N 22°20' E 114°09'2 2.1
2015-Mar-04 05:33N 22°18' E 114°09'1 0.3
2015-Mar-04 03:33N 22°17' E 114°10'4 2.8
2015-Mar-04 02:03N 22°16' E 114°05'4 9.0
2015-Mar-04 01:33N 22°17' E 114°10'2 1.8
2015-Mar-04 00:33N 22°19' E 114°09'6 5.0
2015-Mar-03 23:20N 22°15' E 114°04'6 0.7
2015-Mar-03 15:33N 22°17' E 114°10'7 6.2
2015-Mar-03 14:23N 22°16' E 114°02'7 8.6
2015-Mar-03 13:34N 22°17' E 114°10'0 0.0
2015-Mar-03 12:33N 22°17' E 114°10'5 4.6
2015-Mar-03 11:34N 22°16' E 114°05'2 2.1
2015-Mar-03 10:24N 22°16' E 114°02'7 8.3
2015-Mar-03 09:33N 22°19' E 114°09'1 0.9
2015-Mar-03 08:28N 22°20' E 114°09'0 0.0
2015-Mar-03 07:30N 22°20' E 114°09'0 0.0
2015-Mar-03 06:32N 22°20' E 114°09'1 1.0
2015-Mar-03 05:33N 22°19' E 114°09'6 3.9
2015-Mar-03 04:05N 22°15' E 114°04'5 9.8
2015-Mar-03 03:32N 22°17' E 114°10'0 0.2
2015-Mar-03 01:33N 22°17' E 114°10'2 2.1
2015-Mar-03 00:33N 22°19' E 114°09'6 4.5
2015-Mar-02 23:18N 22°16' E 114°04'1 1.3
2015-Mar-02 22:33N 22°17' E 114°04'5 0.7
2015-Mar-02 15:33N 22°17' E 114°10'7 5.8
2015-Mar-02 14:23N 22°16' E 114°02'910.6
2015-Mar-02 13:33N 22°18' E 114°12'2 2.0
2015-Mar-02 12:33N 22°17' E 114°10'4 4.1
2015-Mar-02 11:32N 22°16' E 114°05'3 2.4
2015-Mar-02 10:23N 22°16' E 114°02'7 8.6
2015-Mar-02 09:33N 22°19' E 114°09'0 0.3
2015-Mar-02 08:24N 22°20' E 114°09'0 0.0
2015-Mar-02 07:30N 22°20' E 114°09'0 0.0
2015-Mar-02 06:25N 22°20' E 114°09'1 1.2
2015-Mar-02 05:33N 22°19' E 114°09'2 0.8
2015-Mar-02 03:33N 22°17' E 114°10'0 0.2
2015-Mar-02 01:33N 22°17' E 114°10'2 1.5
2015-Mar-02 00:33N 22°19' E 114°09'7 5.7
2015-Mar-01 23:22N 22°15' E 114°03'2 1.9
2015-Mar-01 22:30N 22°16' E 114°03'2 0.3
2015-Mar-01 16:04N 22°16' E 114°01'815.7
2015-Mar-01 15:33N 22°17' E 114°10'0 0.0
2015-Mar-01 13:33N 22°17' E 114°10'8 5.2
2015-Mar-01 12:04N 22°16' E 114°01'814.9
2015-Mar-01 11:33N 22°17' E 114°10'8 5.2
2015-Mar-01 10:05N 22°16' E 114°02'814.5
2015-Mar-01 09:34N 22°17' E 114°10'7 4.8
2015-Mar-01 08:04N 22°16' E 114°02'713.9
2015-Mar-01 07:33N 22°17' E 114°10'7 4.9
2015-Mar-01 06:06N 22°16' E 114°02'713.3
2015-Mar-01 05:33N 22°17' E 114°10'7 6.6
2015-Mar-01 04:25N 22°16' E 114°02'8 8.6
2015-Mar-01 03:32N 22°20' E 114°09'0 0.0
2015-Mar-01 02:33N 22°20' E 114°09'0 0.0
2015-Mar-01 01:33N 22°20' E 114°09'0 0.0
2015-Mar-01 00:33N 22°20' E 114°09'3 2.5
2015-Feb-28 23:33N 22°17' E 114°10'0 0.0
2015-Feb-28 16:33N 22°17' E 114°10'7 4.8
2015-Feb-28 15:07N 22°16' E 114°02'712.2
2015-Feb-28 14:33N 22°17' E 114°10'3 3.1
2015-Feb-28 13:34N 22°17' E 114°06'4 2.0
2015-Feb-28 11:25N 22°16' E 114°02'6 7.3
2015-Feb-28 10:33N 22°18' E 114°08'6 5.8
2015-Feb-28 09:32N 22°16' E 114°02'6 5.6
2015-Feb-28 08:33N 22°17' E 114°08'5 4.6
2015-Feb-28 07:30N 22°16' E 114°03'5 5.1
2015-Feb-28 06:34N 22°18' E 114°08'6 6.0
2015-Feb-28 05:33N 22°16' E 114°02'10 9.9
2015-Feb-28 04:33N 22°19' E 114°12'0 0.1
2015-Feb-28 03:33N 22°19' E 114°12'0 0.0
2015-Feb-28 02:33N 22°19' E 114°12'3 2.7
2015-Feb-28 01:28N 22°20' E 114°09'3 1.3
2015-Feb-27 23:33N 22°17' E 114°10'0 0.0
2015-Feb-27 16:33N 22°17' E 114°10'7 4.9
2015-Feb-27 15:07N 22°16' E 114°02'712.2
2015-Feb-27 14:34N 22°17' E 114°10'3 2.7
2015-Feb-27 13:33N 22°17' E 114°07'1 0.5
2015-Feb-27 11:17N 22°17' E 114°05'3 3.7
2015-Feb-27 10:34N 22°17' E 114°08'3 2.4
2015-Feb-27 09:26N 22°17' E 114°05'4 4.6
2015-Feb-27 08:33N 22°19' E 114°09'1 0.6
2015-Feb-27 07:28N 22°20' E 114°09'2 2.4
2015-Feb-27 06:34N 22°18' E 114°08'4 3.3
2015-Feb-27 05:27N 22°17' E 114°05'6 6.2
2015-Feb-27 04:33N 22°17' E 114°10'0 0.4
2015-Feb-27 03:33N 22°17' E 114°10'2 2.4
2015-Feb-27 02:33N 22°19' E 114°12'0 0.0
2015-Feb-27 01:34N 22°19' E 114°12'10 6.5
2015-Feb-27 00:04N 22°16' E 114°02'714.7
2015-Feb-26 23:33N 22°17' E 114°10'0 0.0
2015-Feb-26 16:34N 22°17' E 114°10'6 3.7
2015-Feb-26 15:04N 22°17' E 114°04'510.6
2015-Feb-26 14:33N 22°17' E 114°10'3 3.2
2015-Feb-26 13:34N 22°17' E 114°06'0 0.1
2015-Feb-26 11:15N 22°17' E 114°06'2 2.4
2015-Feb-26 10:33N 22°18' E 114°08'3 2.2
2015-Feb-26 09:25N 22°17' E 114°05'6 6.9
2015-Feb-26 08:33N 22°19' E 114°12'0 0.1
2015-Feb-26 07:33N 22°19' E 114°12'0 0.0
2015-Feb-26 06:33N 22°19' E 114°12'2 2.4
2015-Feb-26 05:33N 22°19' E 114°09'1 0.7
2015-Feb-26 03:33N 22°17' E 114°10'5 3.4
2015-Feb-26 02:05N 22°16' E 114°04'510.4
2015-Feb-26 01:34N 22°17' E 114°10'0 0.2
2015-Feb-25 23:34N 22°17' E 114°10'0 0.0
2015-Feb-25 16:34N 22°17' E 114°10'6 4.2
2015-Feb-25 15:06N 22°16' E 114°03'611.3
2015-Feb-25 14:33N 22°17' E 114°10'3 3.0
2015-Feb-25 13:33N 22°18' E 114°06'4 1.9
2015-Feb-25 11:26N 22°16' E 114°02'6 6.5
2015-Feb-25 10:33N 22°18' E 114°08'2 1.8
2015-Feb-25 09:24N 22°17' E 114°06'2 2.8
2015-Feb-25 08:34N 22°18' E 114°09'3 2.7
2015-Feb-25 07:25N 22°17' E 114°05'6 7.3
2015-Feb-25 06:34N 22°18' E 114°12'1 0.6
2015-Feb-25 05:34N 22°19' E 114°12'0 0.0
2015-Feb-25 04:33N 22°19' E 114°12'0 0.0
2015-Feb-25 03:34N 22°19' E 114°12'0 0.0
2015-Feb-25 02:33N 22°19' E 114°12'0 0.0
2015-Feb-25 01:33N 22°19' E 114°12'10 6.7
2015-Feb-25 00:05N 22°16' E 114°02'814.5
2015-Feb-24 23:33N 22°17' E 114°10'0 0.0
2015-Feb-24 16:33N 22°17' E 114°09'  
Track history (hours):
 
Tides and Currents Weather Stations Pressure Air Temp Water Temp Dewpoint Dewpoint Depression Visibility Wind Speed Wind Dir Waves Ship Positions

First Ferry Vi

Last reported at 2015-Mar-06 15:33 UTC. Time now 2015-Mar-06 20:05 UTC.
Position N 22°17' E 114°10'.

Length 36 m; draft 1.8 m.

Type: Ship. MMSI: 477995028.

Date/timePositionNaut miles runAvg speedWind from/ knotsBaromVisibWave heightAir tempDewpointWater temp
2015-Mar-06 15:33N 22°17' E 114°10'7 5.9
2015-Mar-06 14:23N 22°16' E 114°02'911.1
2015-Mar-06 13:33N 22°18' E 114°12'2 2.3
2015-Mar-06 12:33N 22°17' E 114°10'4 4.3
2015-Mar-06 11:33N 22°16' E 114°05'3 2.6
2015-Mar-06 10:25N 22°16' E 114°02'910.2
2015-Mar-06 09:33N 22°18' E 114°11'2 2.4
2015-Mar-06 08:33N 22°18' E 114°08'2 2.2
2015-Mar-06 07:25N 22°17' E 114°06'4 4.3
2015-Mar-06 06:33N 22°20' E 114°09'0 0.1
2015-Mar-06 05:33N 22°20' E 114°09'0 0.0
2015-Mar-06 04:34N 22°20' E 114°09'0 0.0
2015-Mar-06 03:33N 22°20' E 114°09'0 0.0
2015-Mar-06 02:32N 22°20' E 114°09'0 0.0
2015-Mar-06 01:33N 22°20' E 114°09'1 1.1
2015-Mar-06 00:33N 22°19' E 114°09'5 4.3
2015-Mar-05 23:18N 22°16' E 114°04'5 0.7
2015-Mar-05 15:33N 22°17' E 114°10'7 5.6
2015-Mar-05 14:22N 22°16' E 114°03'7 8.2
2015-Mar-05 13:33N 22°17' E 114°10'0 0.0
2015-Mar-05 12:33N 22°17' E 114°10'4 3.8
2015-Mar-05 11:31N 22°17' E 114°05'0 0.3
2015-Mar-05 10:17N 22°17' E 114°05'6 8.5
2015-Mar-05 09:34N 22°18' E 114°12'1 0.8
2015-Mar-05 08:33N 22°19' E 114°12'0 0.0
2015-Mar-05 07:33N 22°19' E 114°12'0 0.0
2015-Mar-05 06:34N 22°19' E 114°12'2 1.8
2015-Mar-05 05:33N 22°17' E 114°11'1 0.5
2015-Mar-05 03:33N 22°17' E 114°10'0 0.2
2015-Mar-05 01:33N 22°17' E 114°10'2 2.2
2015-Mar-05 00:33N 22°19' E 114°09'7 6.0
2015-Mar-04 23:21N 22°15' E 114°03'7 0.8
2015-Mar-04 15:34N 22°17' E 114°10'8 6.5
2015-Mar-04 14:24N 22°16' E 114°02'911.2
2015-Mar-04 13:34N 22°18' E 114°12'2 1.9
2015-Mar-04 12:34N 22°17' E 114°10'5 4.6
2015-Mar-04 11:33N 22°16' E 114°05'2 2.1
2015-Mar-04 10:23N 22°16' E 114°02'7 8.6
2015-Mar-04 09:33N 22°20' E 114°09'0 0.1
2015-Mar-04 08:33N 22°20' E 114°09'0 0.0
2015-Mar-04 07:33N 22°20' E 114°09'0 0.0
2015-Mar-04 06:33N 22°20' E 114°09'2 2.1
2015-Mar-04 05:33N 22°18' E 114°09'1 0.3
2015-Mar-04 03:33N 22°17' E 114°10'4 2.8
2015-Mar-04 02:03N 22°16' E 114°05'4 9.0
2015-Mar-04 01:33N 22°17' E 114°10'2 1.8
2015-Mar-04 00:33N 22°19' E 114°09'6 5.0
2015-Mar-03 23:20N 22°15' E 114°04'6 0.7
2015-Mar-03 15:33N 22°17' E 114°10'7 6.2
2015-Mar-03 14:23N 22°16' E 114°02'7 8.6
2015-Mar-03 13:34N 22°17' E 114°10'0 0.0
2015-Mar-03 12:33N 22°17' E 114°10'5 4.6
2015-Mar-03 11:34N 22°16' E 114°05'2 2.1
2015-Mar-03 10:24N 22°16' E 114°02'7 8.3
2015-Mar-03 09:33N 22°19' E 114°09'1 0.9
2015-Mar-03 08:28N 22°20' E 114°09'0 0.0
2015-Mar-03 07:30N 22°20' E 114°09'0 0.0
2015-Mar-03 06:32N 22°20' E 114°09'1 1.0
2015-Mar-03 05:33N 22°19' E 114°09'6 3.9
2015-Mar-03 04:05N 22°15' E 114°04'5 9.8
2015-Mar-03 03:32N 22°17' E 114°10'0 0.2
2015-Mar-03 01:33N 22°17' E 114°10'2 2.1
2015-Mar-03 00:33N 22°19' E 114°09'6 4.5
2015-Mar-02 23:18N 22°16' E 114°04'1 1.3
2015-Mar-02 22:33N 22°17' E 114°04'5 0.7
2015-Mar-02 15:33N 22°17' E 114°10'7 5.8
2015-Mar-02 14:23N 22°16' E 114°02'910.6
2015-Mar-02 13:33N 22°18' E 114°12'2 2.0
2015-Mar-02 12:33N 22°17' E 114°10'4 4.1
2015-Mar-02 11:32N 22°16' E 114°05'3 2.4
2015-Mar-02 10:23N 22°16' E 114°02'7 8.6
2015-Mar-02 09:33N 22°19' E 114°09'0 0.3
2015-Mar-02 08:24N 22°20' E 114°09'0 0.0
2015-Mar-02 07:30N 22°20' E 114°09'0 0.0
2015-Mar-02 06:25N 22°20' E 114°09'1 1.2
2015-Mar-02 05:33N 22°19' E 114°09'2 0.8
2015-Mar-02 03:33N 22°17' E 114°10'0 0.2
2015-Mar-02 01:33N 22°17' E 114°10'2 1.5
2015-Mar-02 00:33N 22°19' E 114°09'7 5.7
2015-Mar-01 23:22N 22°15' E 114°03'2 1.9
2015-Mar-01 22:30N 22°16' E 114°03'2 0.3
2015-Mar-01 16:04N 22°16' E 114°01'815.7
2015-Mar-01 15:33N 22°17' E 114°10'0 0.0
2015-Mar-01 13:33N 22°17' E 114°10'8 5.2
2015-Mar-01 12:04N 22°16' E 114°01'814.9
2015-Mar-01 11:33N 22°17' E 114°10'8 5.2
2015-Mar-01 10:05N 22°16' E 114°02'814.5
2015-Mar-01 09:34N 22°17' E 114°10'7 4.8
2015-Mar-01 08:04N 22°16' E 114°02'713.9
2015-Mar-01 07:33N 22°17' E 114°10'7 4.9
2015-Mar-01 06:06N 22°16' E 114°02'713.3
2015-Mar-01 05:33N 22°17' E 114°10'7 6.6
2015-Mar-01 04:25N 22°16' E 114°02'8 8.6
2015-Mar-01 03:32N 22°20' E 114°09'0 0.0
2015-Mar-01 02:33N 22°20' E 114°09'0 0.0
2015-Mar-01 01:33N 22°20' E 114°09'0 0.0
2015-Mar-01 00:33N 22°20' E 114°09'3 2.5
2015-Feb-28 23:33N 22°17' E 114°10'0 0.0
2015-Feb-28 16:33N 22°17' E 114°10'7 4.8
2015-Feb-28 15:07N 22°16' E 114°02'712.2
2015-Feb-28 14:33N 22°17' E 114°10'3 3.1
2015-Feb-28 13:34N 22°17' E 114°06'4 2.0
2015-Feb-28 11:25N 22°16' E 114°02'6 7.3
2015-Feb-28 10:33N 22°18' E 114°08'6 5.8
2015-Feb-28 09:32N 22°16' E 114°02'6 5.6
2015-Feb-28 08:33N 22°17' E 114°08'5 4.6
2015-Feb-28 07:30N 22°16' E 114°03'5 5.1
2015-Feb-28 06:34N 22°18' E 114°08'6 6.0
2015-Feb-28 05:33N 22°16' E 114°02'10 9.9
2015-Feb-28 04:33N 22°19' E 114°12'0 0.1
2015-Feb-28 03:33N 22°19' E 114°12'0 0.0
2015-Feb-28 02:33N 22°19' E 114°12'3 2.7
2015-Feb-28 01:28N 22°20' E 114°09'3 1.3
2015-Feb-27 23:33N 22°17' E 114°10'0 0.0
2015-Feb-27 16:33N 22°17' E 114°10'7 4.9
2015-Feb-27 15:07N 22°16' E 114°02'712.2
2015-Feb-27 14:34N 22°17' E 114°10'3 2.7
2015-Feb-27 13:33N 22°17' E 114°07'1 0.5
2015-Feb-27 11:17N 22°17' E 114°05'3 3.7
2015-Feb-27 10:34N 22°17' E 114°08'3 2.4
2015-Feb-27 09:26N 22°17' E 114°05'4 4.6
2015-Feb-27 08:33N 22°19' E 114°09'1 0.6
2015-Feb-27 07:28N 22°20' E 114°09'2 2.4
2015-Feb-27 06:34N 22°18' E 114°08'4 3.3
2015-Feb-27 05:27N 22°17' E 114°05'6 6.2
2015-Feb-27 04:33N 22°17' E 114°10'0 0.4
2015-Feb-27 03:33N 22°17' E 114°10'2 2.4
2015-Feb-27 02:33N 22°19' E 114°12'0 0.0
2015-Feb-27 01:34N 22°19' E 114°12'10 6.5
2015-Feb-27 00:04N 22°16' E 114°02'714.7
2015-Feb-26 23:33N 22°17' E 114°10'0 0.0
2015-Feb-26 16:34N 22°17' E 114°10'6 3.7
2015-Feb-26 15:04N 22°17' E 114°04'510.6
2015-Feb-26 14:33N 22°17' E 114°10'3 3.2
2015-Feb-26 13:34N 22°17' E 114°06'0 0.1
2015-Feb-26 11:15N 22°17' E 114°06'2 2.4
2015-Feb-26 10:33N 22°18' E 114°08'3 2.2
2015-Feb-26 09:25N 22°17' E 114°05'6 6.9
2015-Feb-26 08:33N 22°19' E 114°12'0 0.1
2015-Feb-26 07:33N 22°19' E 114°12'0 0.0
2015-Feb-26 06:33N 22°19' E 114°12'2 2.4
2015-Feb-26 05:33N 22°19' E 114°09'1 0.7
2015-Feb-26 03:33N 22°17' E 114°10'5 3.4
2015-Feb-26 02:05N 22°16' E 114°04'510.4
2015-Feb-26 01:34N 22°17' E 114°10'0 0.2
2015-Feb-25 23:34N 22°17' E 114°10'0 0.0
2015-Feb-25 16:34N 22°17' E 114°10'6 4.2
2015-Feb-25 15:06N 22°16' E 114°03'611.3
2015-Feb-25 14:33N 22°17' E 114°10'3 3.0
2015-Feb-25 13:33N 22°18' E 114°06'4 1.9
2015-Feb-25 11:26N 22°16' E 114°02'6 6.5
2015-Feb-25 10:33N 22°18' E 114°08'2 1.8
2015-Feb-25 09:24N 22°17' E 114°06'2 2.8
2015-Feb-25 08:34N 22°18' E 114°09'3 2.7
2015-Feb-25 07:25N 22°17' E 114°05'6 7.3
2015-Feb-25 06:34N 22°18' E 114°12'1 0.6
2015-Feb-25 05:34N 22°19' E 114°12'0 0.0
2015-Feb-25 04:33N 22°19' E 114°12'0 0.0
2015-Feb-25 03:34N 22°19' E 114°12'0 0.0
2015-Feb-25 02:33N 22°19' E 114°12'0 0.0
2015-Feb-25 01:33N 22°19' E 114°12'10 6.7
2015-Feb-25 00:05N 22°16' E 114°02'814.5
2015-Feb-24 23:33N 22°17' E 114°10'0 0.0
2015-Feb-24 16:33N 22°17' E 114°09'  

Dump ship's entire track history